Terminal Aerodrome Forecast
Issued by NWS Charleston, WV

Home | Current Version | Previous Version | Text Only | Print | Product List | Glossary On
Versions: 1 2 3 4 5 6 7 8 9 10 11 12 13 14 15 16 17 18 19 20 21 22 23 24
040
FTUS41 KRLX 240546 AAD
TAFHTS
TAF AMD
KHTS 240546Z 2406/2506 07005KT P6SM OVC050
      TEMPO 2408/2412 OVC015
     FM241200 06005KT P6SM OVC012
     FM242200 07005KT P6SM OVC025
     FM250200 08005KT P6SM BKN035=

USA.gov is the U.S. government's official web portal to all federal, state and local government web resources and services.